sensor_id;sensor_type;location;lat;lon;timestamp;pressure;altitude;pressure_sealevel;temperature;humidity
75188;BME280;63762;51.334;22.108;2023-11-21T00:08:00;100945.18;;;3.37;83.11
75188;BME280;63762;51.334;22.108;2023-11-21T00:18:07;100939.85;;;3.18;83.69
75188;BME280;63762;51.334;22.108;2023-11-21T00:28:14;100970.60;;;3.24;83.56
75188;BME280;63762;51.334;22.108;2023-11-21T00:38:22;100968.52;;;3.30;83.51
75188;BME280;63762;51.334;22.108;2023-11-21T00:48:29;100959.89;;;3.25;83.46
75188;BME280;63762;51.334;22.108;2023-11-21T00:58:36;100965.99;;;3.27;83.69
75188;BME280;63762;51.334;22.108;2023-11-21T01:08:44;100967.73;;;3.28;83.46
75188;BME280;63762;51.334;22.108;2023-11-21T01:18:50;100976.27;;;3.35;83.65
75188;BME280;63762;51.334;22.108;2023-11-21T01:28:57;100969.17;;;3.35;83.45
75188;BME280;63762;51.334;22.108;2023-11-21T01:39:04;100977.28;;;3.32;83.27
75188;BME280;63762;51.334;22.108;2023-11-21T01:49:11;100970.19;;;3.33;83.24
75188;BME280;63762;51.334;22.108;2023-11-21T01:59:20;100970.27;;;3.31;82.86
75188;BME280;63762;51.334;22.108;2023-11-21T02:09:29;100978.92;;;3.16;82.71
75188;BME280;63762;51.334;22.108;2023-11-21T02:19:33;100998.61;;;3.12;83.40
75188;BME280;63762;51.334;22.108;2023-11-21T02:29:40;101007.49;;;3.11;83.39
75188;BME280;63762;51.334;22.108;2023-11-21T02:39:47;101009.16;;;3.14;82.63
75188;BME280;63762;51.334;22.108;2023-11-21T02:49:54;101013.88;;;3.07;83.10
75188;BME280;63762;51.334;22.108;2023-11-21T03:00:02;101016.23;;;2.95;82.97
75188;BME280;63762;51.334;22.108;2023-11-21T03:10:09;101016.02;;;2.79;83.05
75188;BME280;63762;51.334;22.108;2023-11-21T03:20:16;101022.00;;;2.64;82.87
75188;BME280;63762;51.334;22.108;2023-11-21T03:30:23;101028.57;;;2.56;82.98
75188;BME280;63762;51.334;22.108;2023-11-21T03:40:30;101024.51;;;2.47;83.32
75188;BME280;63762;51.334;22.108;2023-11-21T03:50:37;101029.95;;;2.44;83.77
75188;BME280;63762;51.334;22.108;2023-11-21T04:00:44;101030.97;;;2.40;83.42
75188;BME280;63762;51.334;22.108;2023-11-21T04:10:51;101038.10;;;2.40;83.42
75188;BME280;63762;51.334;22.108;2023-11-21T04:20:58;101037.35;;;2.36;83.93
75188;BME280;63762;51.334;22.108;2023-11-21T04:31:06;101040.94;;;2.35;83.68
75188;BME280;63762;51.334;22.108;2023-11-21T04:41:13;101052.61;;;2.31;83.41
75188;BME280;63762;51.334;22.108;2023-11-21T04:51:20;101062.55;;;2.26;83.69
75188;BME280;63762;51.334;22.108;2023-11-21T05:01:27;101090.80;;;2.27;83.53
75188;BME280;63762;51.334;22.108;2023-11-21T05:11:34;101093.79;;;2.41;83.55
75188;BME280;63762;51.334;22.108;2023-11-21T05:21:41;101097.23;;;2.43;83.59
75188;BME280;63762;51.334;22.108;2023-11-21T05:31:48;101105.26;;;2.42;83.56
75188;BME280;63762;51.334;22.108;2023-11-21T05:41:56;101109.78;;;2.40;83.38
75188;BME280;63762;51.334;22.108;2023-11-21T05:52:03;101121.18;;;2.42;83.05
75188;BME280;63762;51.334;22.108;2023-11-21T06:02:10;101136.45;;;2.37;82.46
75188;BME280;63762;51.334;22.108;2023-11-21T06:12:17;101143.48;;;2.38;82.39
75188;BME280;63762;51.334;22.108;2023-11-21T06:22:24;101150.13;;;2.26;82.32
75188;BME280;63762;51.334;22.108;2023-11-21T06:32:31;101180.23;;;2.03;82.75
75188;BME280;63762;51.334;22.108;2023-11-21T06:42:39;101181.88;;;2.06;82.69
75188;BME280;63762;51.334;22.108;2023-11-21T06:52:46;101192.72;;;2.00;82.79
75188;BME280;63762;51.334;22.108;2023-11-21T07:02:53;101206.81;;;1.77;83.18
75188;BME280;63762;51.334;22.108;2023-11-21T07:13:00;101186.57;;;1.75;83.38
75188;BME280;63762;51.334;22.108;2023-11-21T07:23:07;101206.07;;;1.74;84.03
75188;BME280;63762;51.334;22.108;2023-11-21T07:33:14;101207.15;;;1.93;84.18
75188;BME280;63762;51.334;22.108;2023-11-21T07:43:22;101203.45;;;1.97;84.36
75188;BME280;63762;51.334;22.108;2023-11-21T07:53:29;101220.75;;;2.07;83.83
75188;BME280;63762;51.334;22.108;2023-11-21T08:03:36;101218.92;;;2.09;83.38
75188;BME280;63762;51.334;22.108;2023-11-21T08:13:43;101230.80;;;1.99;83.79
75188;BME280;63762;51.334;22.108;2023-11-21T08:23:50;101240.15;;;2.09;83.74
75188;BME280;63762;51.334;22.108;2023-11-21T08:33:57;101256.07;;;2.09;83.79
75188;BME280;63762;51.334;22.108;2023-11-21T08:44:05;101275.08;;;1.97;83.31
75188;BME280;63762;51.334;22.108;2023-11-21T08:54:11;101274.87;;;2.03;83.44
75188;BME280;63762;51.334;22.108;2023-11-21T09:04:18;101281.74;;;1.84;83.50
75188;BME280;63762;51.334;22.108;2023-11-21T09:14:25;101280.80;;;1.85;83.39
75188;BME280;63762;51.334;22.108;2023-11-21T09:24:33;101282.57;;;1.86;84.03
75188;BME280;63762;51.334;22.108;2023-11-21T09:34:40;101286.94;;;1.87;83.85
75188;BME280;63762;51.334;22.108;2023-11-21T09:55:02;101299.98;;;1.68;83.87
75188;BME280;63762;51.334;22.108;2023-11-21T10:05:03;101293.85;;;1.66;83.57
75188;BME280;63762;51.334;22.108;2023-11-21T10:15:11;101309.12;;;1.60;83.74
75188;BME280;63762;51.334;22.108;2023-11-21T10:25:16;101307.37;;;1.59;83.96
75188;BME280;63762;51.334;22.108;2023-11-21T10:35:23;101304.71;;;1.59;84.12
75188;BME280;63762;51.334;22.108;2023-11-21T10:45:30;101299.41;;;1.59;83.51
75188;BME280;63762;51.334;22.108;2023-11-21T10:55:37;101312.77;;;1.56;84.14
75188;BME280;63762;51.334;22.108;2023-11-21T11:05:44;101307.83;;;1.71;84.75
75188;BME280;63762;51.334;22.108;2023-11-21T11:15:59;101305.13;;;1.73;83.50
75188;BME280;63762;51.334;22.108;2023-11-21T11:26:20;101322.05;;;1.43;83.24
75188;BME280;63762;51.334;22.108;2023-11-21T11:36:34;101320.47;;;1.37;83.52
75188;BME280;63762;51.334;22.108;2023-11-21T11:46:42;101336.13;;;1.45;83.82
75188;BME280;63762;51.334;22.108;2023-11-21T11:56:47;101322.48;;;1.57;83.85
75188;BME280;63762;51.334;22.108;2023-11-21T12:06:50;101357.84;;;1.56;83.24
75188;BME280;63762;51.334;22.108;2023-11-21T12:16:51;101348.30;;;1.50;82.79
75188;BME280;63762;51.334;22.108;2023-11-21T12:29:48;101354.00;;;1.38;83.37
75188;BME280;63762;51.334;22.108;2023-11-21T12:39:55;101381.70;;;1.56;83.30
75188;BME280;63762;51.334;22.108;2023-11-21T12:50:03;101388.77;;;1.57;82.41
75188;BME280;63762;51.334;22.108;2023-11-21T13:00:10;101382.58;;;1.56;82.74
75188;BME280;63762;51.334;22.108;2023-11-21T13:10:21;101391.94;;;1.40;82.72
75188;BME280;63762;51.334;22.108;2023-11-21T13:20:28;101403.61;;;1.35;82.84
75188;BME280;63762;51.334;22.108;2023-11-21T13:30:31;101412.27;;;1.40;83.13
75188;BME280;63762;51.334;22.108;2023-11-21T13:40:39;101420.66;;;1.26;83.04
75188;BME280;63762;51.334;22.108;2023-11-21T13:50:45;101440.72;;;1.35;83.46
75188;BME280;63762;51.334;22.108;2023-11-21T14:01:00;101439.80;;;1.36;83.73
75188;BME280;63762;51.334;22.108;2023-11-21T14:11:06;101458.61;;;1.27;82.65
75188;BME280;63762;51.334;22.108;2023-11-21T14:21:07;101467.41;;;1.29;82.87
75188;BME280;63762;51.334;22.108;2023-11-21T14:31:14;101494.07;;;1.23;82.57
75188;BME280;63762;51.334;22.108;2023-11-21T14:41:20;101495.18;;;1.16;82.13
75188;BME280;63762;51.334;22.108;2023-11-21T14:51:28;101506.91;;;1.07;82.27
75188;BME280;63762;51.334;22.108;2023-11-21T15:01:35;101493.66;;;1.07;82.55
75188;BME280;63762;51.334;22.108;2023-11-21T15:11:50;101509.73;;;1.01;82.18
75188;BME280;63762;51.334;22.108;2023-11-21T15:22:00;101514.95;;;1.04;82.37
75188;BME280;63762;51.334;22.108;2023-11-21T15:32:01;101534.29;;;1.06;82.27
75188;BME280;63762;51.334;22.108;2023-11-21T15:42:04;101554.45;;;0.81;81.67
75188;BME280;63762;51.334;22.108;2023-11-21T15:52:10;101569.04;;;0.64;82.13
75188;BME280;63762;51.334;22.108;2023-11-21T16:02:18;101589.37;;;0.62;82.56
75188;BME280;63762;51.334;22.108;2023-11-21T16:12:25;101605.03;;;0.71;82.26
75188;BME280;63762;51.334;22.108;2023-11-21T16:22:32;101621.94;;;0.65;82.33
75188;BME280;63762;51.334;22.108;2023-11-21T16:32:39;101624.59;;;0.65;82.35
75188;BME280;63762;51.334;22.108;2023-11-21T16:42:47;101634.70;;;0.48;82.46
75188;BME280;63762;51.334;22.108;2023-11-21T16:52:53;101652.27;;;0.52;81.91
75188;BME280;63762;51.334;22.108;2023-11-21T17:03:00;101657.56;;;0.52;81.94
75188;BME280;63762;51.334;22.108;2023-11-21T17:13:08;101668.05;;;0.57;81.54
75188;BME280;63762;51.334;22.108;2023-11-21T17:23:15;101673.34;;;0.57;80.79
75188;BME280;63762;51.334;22.108;2023-11-21T17:33:22;101696.79;;;0.34;81.54
75188;BME280;63762;51.334;22.108;2023-11-21T17:43:29;101699.70;;;0.23;81.57
75188;BME280;63762;51.334;22.108;2023-11-21T17:53:37;101724.84;;;0.03;81.96
75188;BME280;63762;51.334;22.108;2023-11-21T18:03:43;101729.31;;;-0.01;82.62
75188;BME280;63762;51.334;22.108;2023-11-21T18:13:50;101755.15;;;-0.14;82.44
75188;BME280;63762;51.334;22.108;2023-11-21T18:23:58;101755.02;;;-0.08;82.43
75188;BME280;63762;51.334;22.108;2023-11-21T18:34:05;101748.17;;;-0.18;82.78
75188;BME280;63762;51.334;22.108;2023-11-21T18:44:12;101765.03;;;-0.25;82.66
75188;BME280;63762;51.334;22.108;2023-11-21T18:54:19;101773.16;;;-0.34;82.85
75188;BME280;63762;51.334;22.108;2023-11-21T19:04:26;101790.72;;;-0.31;82.78
75188;BME280;63762;51.334;22.108;2023-11-21T19:14:33;101794.36;;;-0.37;82.50
75188;BME280;63762;51.334;22.108;2023-11-21T19:24:41;101812.01;;;-0.39;82.57
75188;BME280;63762;51.334;22.108;2023-11-21T19:34:48;101812.94;;;-0.41;82.35
75188;BME280;63762;51.334;22.108;2023-11-21T19:44:55;101828.73;;;-0.37;82.33
75188;BME280;63762;51.334;22.108;2023-11-21T19:55:03;101849.71;;;-0.29;81.83
75188;BME280;63762;51.334;22.108;2023-11-21T20:05:10;101864.15;;;-0.47;82.35
75188;BME280;63762;51.334;22.108;2023-11-21T20:15:16;101866.50;;;-0.32;82.17
75188;BME280;63762;51.334;22.108;2023-11-21T20:25:27;101875.24;;;-0.27;81.73
75188;BME280;63762;51.334;22.108;2023-11-21T20:35:31;101890.45;;;-0.41;80.97
75188;BME280;63762;51.334;22.108;2023-11-21T20:45:39;101903.92;;;-0.56;81.12
75188;BME280;63762;51.334;22.108;2023-11-21T20:55:45;101911.74;;;-0.48;81.65
75188;BME280;63762;51.334;22.108;2023-11-21T21:05:52;101925.69;;;-0.40;81.06
75188;BME280;63762;51.334;22.108;2023-11-21T21:15:59;101944.45;;;-0.58;81.14
75188;BME280;63762;51.334;22.108;2023-11-21T21:26:06;101957.60;;;-0.54;81.53
75188;BME280;63762;51.334;22.108;2023-11-21T21:36:13;101966.40;;;-0.52;81.07
75188;BME280;63762;51.334;22.108;2023-11-21T21:46:21;101989.55;;;-0.69;81.42
75188;BME280;63762;51.334;22.108;2023-11-21T21:56:28;101992.02;;;-0.58;80.72
75188;BME280;63762;51.334;22.108;2023-11-21T22:06:35;102008.95;;;-0.71;80.90
75188;BME280;63762;51.334;22.108;2023-11-21T22:16:42;102018.58;;;-0.66;81.10
75188;BME280;63762;51.334;22.108;2023-11-21T22:26:49;102021.26;;;-0.69;80.65
75188;BME280;63762;51.334;22.108;2023-11-21T22:36:57;102046.02;;;-0.77;80.47
75188;BME280;63762;51.334;22.108;2023-11-21T22:47:03;102060.08;;;-0.75;80.36
75188;BME280;63762;51.334;22.108;2023-11-21T22:57:10;102075.84;;;-0.68;80.57
75188;BME280;63762;51.334;22.108;2023-11-21T23:07:18;102082.08;;;-0.73;79.96
75188;BME280;63762;51.334;22.108;2023-11-21T23:17:25;102088.37;;;-0.83;80.63
75188;BME280;63762;51.334;22.108;2023-11-21T23:27:32;102091.88;;;-0.86;80.36
75188;BME280;63762;51.334;22.108;2023-11-21T23:37:39;102106.96;;;-0.94;80.56
75188;BME280;63762;51.334;22.108;2023-11-21T23:47:46;102103.52;;;-1.02;79.59
75188;BME280;63762;51.334;22.108;2023-11-21T23:57:53;102113.16;;;-0.96;80.13
